sensor_id;sensor_type;location;lat;lon;timestamp;temperature;humidity
38239;DHT22;24035;48.900;9.188;2022-10-16T00:01:18;15.50;99.90
38239;DHT22;24035;48.900;9.188;2022-10-16T00:03:46;15.60;99.90
38239;DHT22;24035;48.900;9.188;2022-10-16T00:06:13;15.60;99.90
38239;DHT22;24035;48.900;9.188;2022-10-16T00:08:39;15.70;1.00
38239;DHT22;24035;48.900;9.188;2022-10-16T00:11:09;15.70;1.00
38239;DHT22;24035;48.900;9.188;2022-10-16T00:13:36;15.80;1.00
38239;DHT22;24035;48.900;9.188;2022-10-16T00:16:03;15.70;1.00
38239;DHT22;24035;48.900;9.188;2022-10-16T00:18:29;15.70;1.00
38239;DHT22;24035;48.900;9.188;2022-10-16T00:21:00;15.80;1.00
38239;DHT22;24035;48.900;9.188;2022-10-16T00:23:26;15.80;99.90
38239;DHT22;24035;48.900;9.188;2022-10-16T00:25:56;15.80;99.90
38239;DHT22;24035;48.900;9.188;2022-10-16T00:28:22;15.80;99.90
38239;DHT22;24035;48.900;9.188;2022-10-16T00:30:48;15.80;99.90
38239;DHT22;24035;48.900;9.188;2022-10-16T00:33:13;15.80;99.90
38239;DHT22;24035;48.900;9.188;2022-10-16T00:35:39;15.80;99.90
38239;DHT22;24035;48.900;9.188;2022-10-16T00:38:05;15.90;86.20
38239;DHT22;24035;48.900;9.188;2022-10-16T00:40:30;15.80;23.30
38239;DHT22;24035;48.900;9.188;2022-10-16T00:42:57;15.80;99.90
38239;DHT22;24035;48.900;9.188;2022-10-16T00:45:23;15.70;99.90
38239;DHT22;24035;48.900;9.188;2022-10-16T00:47:51;15.70;99.90
38239;DHT22;24035;48.900;9.188;2022-10-16T00:50:30;15.70;99.90
38239;DHT22;24035;48.900;9.188;2022-10-16T00:52:56;15.70;99.90
38239;DHT22;24035;48.900;9.188;2022-10-16T00:55:24;15.70;99.90
38239;DHT22;24035;48.900;9.188;2022-10-16T00:57:51;15.80;99.90
38239;DHT22;24035;48.900;9.188;2022-10-16T01:00:21;15.80;99.90
38239;DHT22;24035;48.900;9.188;2022-10-16T01:02:54;15.80;99.90
38239;DHT22;24035;48.900;9.188;2022-10-16T01:05:22;15.90;99.90
38239;DHT22;24035;48.900;9.188;2022-10-16T01:08:13;16.00;1.00
38239;DHT22;24035;48.900;9.188;2022-10-16T01:13:21;16.00;1.00
38239;DHT22;24035;48.900;9.188;2022-10-16T01:16:08;16.10;1.00
38239;DHT22;24035;48.900;9.188;2022-10-16T01:18:45;16.10;1.00
38239;DHT22;24035;48.900;9.188;2022-10-16T01:21:18;16.10;1.00
38239;DHT22;24035;48.900;9.188;2022-10-16T01:29:20;16.20;99.90
38239;DHT22;24035;48.900;9.188;2022-10-16T01:31:56;16.20;99.90
38239;DHT22;24035;48.900;9.188;2022-10-16T01:34:33;16.10;1.00
38239;DHT22;24035;48.900;9.188;2022-10-16T01:37:12;16.00;1.00
38239;DHT22;24035;48.900;9.188;2022-10-16T01:39:42;16.00;1.00
38239;DHT22;24035;48.900;9.188;2022-10-16T01:42:17;16.00;1.00
38239;DHT22;24035;48.900;9.188;2022-10-16T01:44:45;15.90;1.00
38239;DHT22;24035;48.900;9.188;2022-10-16T01:47:13;15.90;1.00
38239;DHT22;24035;48.900;9.188;2022-10-16T01:49:41;16.00;1.00
38239;DHT22;24035;48.900;9.188;2022-10-16T01:52:12;15.90;1.00
38239;DHT22;24035;48.900;9.188;2022-10-16T01:54:43;16.00;1.00
38239;DHT22;24035;48.900;9.188;2022-10-16T01:57:11;16.10;1.00
38239;DHT22;24035;48.900;9.188;2022-10-16T01:59:42;16.10;1.00
38239;DHT22;24035;48.900;9.188;2022-10-16T02:02:10;16.10;1.00
38239;DHT22;24035;48.900;9.188;2022-10-16T02:04:42;16.00;99.90
38239;DHT22;24035;48.900;9.188;2022-10-16T02:07:08;16.00;1.00
38239;DHT22;24035;48.900;9.188;2022-10-16T02:09:34;16.10;99.90
38239;DHT22;24035;48.900;9.188;2022-10-16T02:12:06;16.10;99.90
38239;DHT22;24035;48.900;9.188;2022-10-16T02:14:37;16.20;99.90
38239;DHT22;24035;48.900;9.188;2022-10-16T02:17:14;16.20;99.90
38239;DHT22;24035;48.900;9.188;2022-10-16T02:19:41;16.10;1.00
38239;DHT22;24035;48.900;9.188;2022-10-16T02:22:09;16.20;1.00
38239;DHT22;24035;48.900;9.188;2022-10-16T02:27:17;16.20;1.00
38239;DHT22;24035;48.900;9.188;2022-10-16T02:29:49;16.20;99.90
38239;DHT22;24035;48.900;9.188;2022-10-16T02:32:20;16.20;1.00
38239;DHT22;24035;48.900;9.188;2022-10-16T02:34:48;16.20;1.00
38239;DHT22;24035;48.900;9.188;2022-10-16T02:37:15;16.10;1.00
38239;DHT22;24035;48.900;9.188;2022-10-16T02:39:41;16.20;1.00
38239;DHT22;24035;48.900;9.188;2022-10-16T02:42:14;16.40;99.90
38239;DHT22;24035;48.900;9.188;2022-10-16T02:44:40;16.30;99.90
38239;DHT22;24035;48.900;9.188;2022-10-16T02:47:05;16.30;99.90
38239;DHT22;24035;48.900;9.188;2022-10-16T02:49:31;16.20;99.90
38239;DHT22;24035;48.900;9.188;2022-10-16T02:51:57;16.20;99.90
38239;DHT22;24035;48.900;9.188;2022-10-16T02:54:22;16.10;99.90
38239;DHT22;24035;48.900;9.188;2022-10-16T02:56:49;16.10;1.00
38239;DHT22;24035;48.900;9.188;2022-10-16T02:59:15;16.00;1.00
38239;DHT22;24035;48.900;9.188;2022-10-16T03:01:41;15.90;1.00
38239;DHT22;24035;48.900;9.188;2022-10-16T03:04:06;15.90;1.00
38239;DHT22;24035;48.900;9.188;2022-10-16T03:06:32;15.90;99.90
38239;DHT22;24035;48.900;9.188;2022-10-16T03:08:57;15.80;99.90
38239;DHT22;24035;48.900;9.188;2022-10-16T03:11:23;15.90;99.90
38239;DHT22;24035;48.900;9.188;2022-10-16T03:13:49;15.80;99.90
38239;DHT22;24035;48.900;9.188;2022-10-16T03:16:14;15.80;99.90
38239;DHT22;24035;48.900;9.188;2022-10-16T03:18:40;15.80;99.90
38239;DHT22;24035;48.900;9.188;2022-10-16T03:21:06;15.70;99.90
38239;DHT22;24035;48.900;9.188;2022-10-16T03:23:31;15.70;99.90
38239;DHT22;24035;48.900;9.188;2022-10-16T03:25:57;15.70;99.90
38239;DHT22;24035;48.900;9.188;2022-10-16T03:28:23;15.70;1.00
38239;DHT22;24035;48.900;9.188;2022-10-16T03:30:48;15.70;99.90
38239;DHT22;24035;48.900;9.188;2022-10-16T03:33:14;15.70;99.90
38239;DHT22;24035;48.900;9.188;2022-10-16T03:35:40;15.60;1.00
38239;DHT22;24035;48.900;9.188;2022-10-16T03:38:05;15.60;99.90
38239;DHT22;24035;48.900;9.188;2022-10-16T03:40:31;15.60;1.00
38239;DHT22;24035;48.900;9.188;2022-10-16T03:43:00;15.50;1.00
38239;DHT22;24035;48.900;9.188;2022-10-16T03:45:25;15.40;99.00
38239;DHT22;24035;48.900;9.188;2022-10-16T03:47:52;15.40;99.90
38239;DHT22;24035;48.900;9.188;2022-10-16T03:50:17;15.40;99.90
38239;DHT22;24035;48.900;9.188;2022-10-16T03:52:43;15.40;99.90
38239;DHT22;24035;48.900;9.188;2022-10-16T03:55:09;15.40;99.90
38239;DHT22;24035;48.900;9.188;2022-10-16T03:57:35;15.40;99.90
38239;DHT22;24035;48.900;9.188;2022-10-16T04:00:00;15.40;99.90
38239;DHT22;24035;48.900;9.188;2022-10-16T04:02:26;15.40;99.90
38239;DHT22;24035;48.900;9.188;2022-10-16T04:04:52;15.60;1.00
38239;DHT22;24035;48.900;9.188;2022-10-16T04:07:18;15.50;1.00
38239;DHT22;24035;48.900;9.188;2022-10-16T04:09:43;15.50;1.00
38239;DHT22;24035;48.900;9.188;2022-10-16T04:12:09;15.40;1.00
38239;DHT22;24035;48.900;9.188;2022-10-16T04:14:35;15.50;99.90
38239;DHT22;24035;48.900;9.188;2022-10-16T04:17:00;15.40;1.00
38239;DHT22;24035;48.900;9.188;2022-10-16T04:19:26;15.40;1.00
38239;DHT22;24035;48.900;9.188;2022-10-16T04:21:52;15.40;99.90
38239;DHT22;24035;48.900;9.188;2022-10-16T04:24:17;15.30;99.90
38239;DHT22;24035;48.900;9.188;2022-10-16T04:26:43;15.30;1.00
38239;DHT22;24035;48.900;9.188;2022-10-16T04:29:08;15.30;99.90
38239;DHT22;24035;48.900;9.188;2022-10-16T04:31:34;15.30;99.90
38239;DHT22;24035;48.900;9.188;2022-10-16T04:34:00;15.20;99.90
38239;DHT22;24035;48.900;9.188;2022-10-16T04:36:25;15.30;99.90
38239;DHT22;24035;48.900;9.188;2022-10-16T04:38:51;15.30;1.00
38239;DHT22;24035;48.900;9.188;2022-10-16T04:41:16;15.30;99.90
38239;DHT22;24035;48.900;9.188;2022-10-16T04:43:42;15.30;99.90
38239;DHT22;24035;48.900;9.188;2022-10-16T04:46:08;15.30;99.90
38239;DHT22;24035;48.900;9.188;2022-10-16T04:48:35;15.30;99.90
38239;DHT22;24035;48.900;9.188;2022-10-16T04:51:01;15.30;99.90
38239;DHT22;24035;48.900;9.188;2022-10-16T04:53:27;15.20;99.90
38239;DHT22;24035;48.900;9.188;2022-10-16T04:55:52;15.20;99.90
38239;DHT22;24035;48.900;9.188;2022-10-16T04:58:18;15.20;99.90
38239;DHT22;24035;48.900;9.188;2022-10-16T05:00:44;15.20;1.00
38239;DHT22;24035;48.900;9.188;2022-10-16T05:03:12;15.20;1.00
38239;DHT22;24035;48.900;9.188;2022-10-16T05:05:43;15.20;1.00
38239;DHT22;24035;48.900;9.188;2022-10-16T05:08:10;15.20;1.00
38239;DHT22;24035;48.900;9.188;2022-10-16T05:10:36;15.30;1.00
38239;DHT22;24035;48.900;9.188;2022-10-16T05:13:01;15.20;1.00
38239;DHT22;24035;48.900;9.188;2022-10-16T05:15:27;15.20;1.00
38239;DHT22;24035;48.900;9.188;2022-10-16T05:17:54;15.10;1.00
38239;DHT22;24035;48.900;9.188;2022-10-16T05:20:21;15.10;1.00
38239;DHT22;24035;48.900;9.188;2022-10-16T05:22:47;15.00;1.00
38239;DHT22;24035;48.900;9.188;2022-10-16T05:25:12;15.00;99.90
38239;DHT22;24035;48.900;9.188;2022-10-16T05:27:38;14.90;99.90
38239;DHT22;24035;48.900;9.188;2022-10-16T05:30:04;14.90;1.00
38239;DHT22;24035;48.900;9.188;2022-10-16T05:32:30;14.80;1.00
38239;DHT22;24035;48.900;9.188;2022-10-16T05:34:56;14.70;1.00
38239;DHT22;24035;48.900;9.188;2022-10-16T05:37:21;14.70;39.10
38239;DHT22;24035;48.900;9.188;2022-10-16T05:39:47;14.80;99.90
38239;DHT22;24035;48.900;9.188;2022-10-16T05:42:13;14.70;99.90
38239;DHT22;24035;48.900;9.188;2022-10-16T05:44:38;14.70;1.00
38239;DHT22;24035;48.900;9.188;2022-10-16T05:47:04;14.60;1.00
38239;DHT22;24035;48.900;9.188;2022-10-16T05:49:30;14.60;1.00
38239;DHT22;24035;48.900;9.188;2022-10-16T05:51:56;14.60;1.00
38239;DHT22;24035;48.900;9.188;2022-10-16T05:54:22;14.60;1.00
38239;DHT22;24035;48.900;9.188;2022-10-16T05:56:47;14.60;1.00
38239;DHT22;24035;48.900;9.188;2022-10-16T05:59:13;14.60;98.60
38239;DHT22;24035;48.900;9.188;2022-10-16T06:01:39;14.60;99.90
38239;DHT22;24035;48.900;9.188;2022-10-16T06:04:04;14.60;99.90
38239;DHT22;24035;48.900;9.188;2022-10-16T06:06:30;14.70;99.90
38239;DHT22;24035;48.900;9.188;2022-10-16T06:08:56;14.60;99.90
38239;DHT22;24035;48.900;9.188;2022-10-16T06:11:26;14.60;99.90
38239;DHT22;24035;48.900;9.188;2022-10-16T06:13:57;14.70;99.90
38239;DHT22;24035;48.900;9.188;2022-10-16T06:16:25;14.70;99.90
38239;DHT22;24035;48.900;9.188;2022-10-16T06:18:52;14.70;99.90
38239;DHT22;24035;48.900;9.188;2022-10-16T06:21:22;14.70;99.90
38239;DHT22;24035;48.900;9.188;2022-10-16T06:23:48;14.80;99.90
38239;DHT22;24035;48.900;9.188;2022-10-16T06:26:16;14.80;99.90
38239;DHT22;24035;48.900;9.188;2022-10-16T06:28:43;14.80;99.90
38239;DHT22;24035;48.900;9.188;2022-10-16T06:31:10;14.80;2.70
38239;DHT22;24035;48.900;9.188;2022-10-16T06:33:36;14.80;1.00
38239;DHT22;24035;48.900;9.188;2022-10-16T06:36:04;14.80;7.00
38239;DHT22;24035;48.900;9.188;2022-10-16T06:38:34;14.90;1.00
38239;DHT22;24035;48.900;9.188;2022-10-16T06:41:04;14.90;50.40
38239;DHT22;24035;48.900;9.188;2022-10-16T06:43:31;15.00;96.50
38239;DHT22;24035;48.900;9.188;2022-10-16T06:45:58;15.10;99.90
38239;DHT22;24035;48.900;9.188;2022-10-16T06:48:25;15.20;44.10
38239;DHT22;24035;48.900;9.188;2022-10-16T06:51:18;15.20;1.00
38239;DHT22;24035;48.900;9.188;2022-10-16T06:53:49;15.30;1.00
38239;DHT22;24035;48.900;9.188;2022-10-16T06:56:18;15.40;99.90
38239;DHT22;24035;48.900;9.188;2022-10-16T06:58:45;15.50;1.00
38239;DHT22;24035;48.900;9.188;2022-10-16T07:01:11;15.60;99.90
38239;DHT22;24035;48.900;9.188;2022-10-16T07:03:42;15.70;99.90
38239;DHT22;24035;48.900;9.188;2022-10-16T07:06:11;15.90;76.10
38239;DHT22;24035;48.900;9.188;2022-10-16T07:08:38;16.10;1.00
38239;DHT22;24035;48.900;9.188;2022-10-16T07:11:07;16.20;99.90
38239;DHT22;24035;48.900;9.188;2022-10-16T07:13:34;16.20;99.90
38239;DHT22;24035;48.900;9.188;2022-10-16T07:16:19;16.30;1.00
38239;DHT22;24035;48.900;9.188;2022-10-16T07:18:46;16.30;1.00
38239;DHT22;24035;48.900;9.188;2022-10-16T07:21:18;16.40;99.90
38239;DHT22;24035;48.900;9.188;2022-10-16T07:23:45;16.40;1.00
38239;DHT22;24035;48.900;9.188;2022-10-16T07:26:11;16.40;1.00
38239;DHT22;24035;48.900;9.188;2022-10-16T07:28:38;16.30;1.00
38239;DHT22;24035;48.900;9.188;2022-10-16T07:31:07;16.30;1.00
38239;DHT22;24035;48.900;9.188;2022-10-16T07:33:34;16.30;1.00
38239;DHT22;24035;48.900;9.188;2022-10-16T07:36:00;16.30;29.60
38239;DHT22;24035;48.900;9.188;2022-10-16T07:38:26;16.20;64.50
38239;DHT22;24035;48.900;9.188;2022-10-16T07:41:00;16.10;99.90
38239;DHT22;24035;48.900;9.188;2022-10-16T07:43:27;16.10;99.90
38239;DHT22;24035;48.900;9.188;2022-10-16T07:45:53;16.10;99.90
38239;DHT22;24035;48.900;9.188;2022-10-16T07:48:19;16.10;99.90
38239;DHT22;24035;48.900;9.188;2022-10-16T07:50:45;16.10;1.00
38239;DHT22;24035;48.900;9.188;2022-10-16T07:53:11;16.30;1.00
38239;DHT22;24035;48.900;9.188;2022-10-16T07:55:37;16.40;1.00
38239;DHT22;24035;48.900;9.188;2022-10-16T07:58:03;16.50;99.90
38239;DHT22;24035;48.900;9.188;2022-10-16T08:00:30;16.70;1.00
38239;DHT22;24035;48.900;9.188;2022-10-16T08:02:57;17.00;20.60
38239;DHT22;24035;48.900;9.188;2022-10-16T08:05:29;17.20;1.00
38239;DHT22;24035;48.900;9.188;2022-10-16T08:07:56;17.40;99.90
38239;DHT22;24035;48.900;9.188;2022-10-16T08:10:24;17.60;1.00
38239;DHT22;24035;48.900;9.188;2022-10-16T08:12:51;17.90;1.00
38239;DHT22;24035;48.900;9.188;2022-10-16T08:15:17;18.10;99.90
38239;DHT22;24035;48.900;9.188;2022-10-16T08:17:43;18.30;1.00
38239;DHT22;24035;48.900;9.188;2022-10-16T08:20:10;18.30;1.00
38239;DHT22;24035;48.900;9.188;2022-10-16T08:22:35;18.50;1.00
38239;DHT22;24035;48.900;9.188;2022-10-16T08:25:01;18.80;1.00
38239;DHT22;24035;48.900;9.188;2022-10-16T08:27:33;19.10;99.90
38239;DHT22;24035;48.900;9.188;2022-10-16T08:29:59;19.10;99.90
38239;DHT22;24035;48.900;9.188;2022-10-16T08:32:24;19.10;99.90
38239;DHT22;24035;48.900;9.188;2022-10-16T08:34:50;19.30;99.90
38239;DHT22;24035;48.900;9.188;2022-10-16T08:37:16;19.40;99.90
38239;DHT22;24035;48.900;9.188;2022-10-16T08:39:41;19.50;99.90
38239;DHT22;24035;48.900;9.188;2022-10-16T08:42:50;19.50;69.40
38239;DHT22;24035;48.900;9.188;2022-10-16T08:51:04;19.40;99.90
38239;DHT22;24035;48.900;9.188;2022-10-16T08:53:56;19.50;99.90
38239;DHT22;24035;48.900;9.188;2022-10-16T08:56:22;19.60;1.00
38239;DHT22;24035;48.900;9.188;2022-10-16T08:58:48;19.80;1.00
38239;DHT22;24035;48.900;9.188;2022-10-16T09:01:17;19.80;1.00
38239;DHT22;24035;48.900;9.188;2022-10-16T09:15:07;19.80;1.00
38239;DHT22;24035;48.900;9.188;2022-10-16T09:18:32;19.60;1.00
38239;DHT22;24035;48.900;9.188;2022-10-16T09:23:19;19.90;1.00
38239;DHT22;24035;48.900;9.188;2022-10-16T09:25:49;19.80;1.00
38239;DHT22;24035;48.900;9.188;2022-10-16T09:28:17;19.80;1.00
38239;DHT22;24035;48.900;9.188;2022-10-16T09:30:43;19.60;1.00
38239;DHT22;24035;48.900;9.188;2022-10-16T09:33:11;19.50;1.00
38239;DHT22;24035;48.900;9.188;2022-10-16T09:35:47;19.50;30.40
38239;DHT22;24035;48.900;9.188;2022-10-16T09:38:28;19.40;1.00
38239;DHT22;24035;48.900;9.188;2022-10-16T09:40:59;19.40;14.00
38239;DHT22;24035;48.900;9.188;2022-10-16T09:43:38;19.50;1.00
38239;DHT22;24035;48.900;9.188;2022-10-16T09:48:51;19.60;1.00
38239;DHT22;24035;48.900;9.188;2022-10-16T09:51:27;19.90;71.10
38239;DHT22;24035;48.900;9.188;2022-10-16T09:54:02;20.20;1.00
38239;DHT22;24035;48.900;9.188;2022-10-16T09:56:33;20.60;1.00
38239;DHT22;24035;48.900;9.188;2022-10-16T09:59:03;20.60;1.00
38239;DHT22;24035;48.900;9.188;2022-10-16T10:01:37;20.50;1.00
38239;DHT22;24035;48.900;9.188;2022-10-16T10:04:04;20.60;1.00
38239;DHT22;24035;48.900;9.188;2022-10-16T10:06:36;20.70;1.00
38239;DHT22;24035;48.900;9.188;2022-10-16T10:09:06;20.60;99.90
38239;DHT22;24035;48.900;9.188;2022-10-16T10:14:19;20.50;1.00
38239;DHT22;24035;48.900;9.188;2022-10-16T10:16:45;20.40;1.00
38239;DHT22;24035;48.900;9.188;2022-10-16T10:19:20;20.50;1.00
38239;DHT22;24035;48.900;9.188;2022-10-16T10:21:47;20.50;99.90
38239;DHT22;24035;48.900;9.188;2022-10-16T10:24:14;20.80;99.90
38239;DHT22;24035;48.900;9.188;2022-10-16T10:32:12;21.80;90.00
38239;DHT22;24035;48.900;9.188;2022-10-16T10:37:37;22.70;1.00
38239;DHT22;24035;48.900;9.188;2022-10-16T10:50:24;23.60;1.00
38239;DHT22;24035;48.900;9.188;2022-10-16T10:55:45;24.30;1.00
38239;DHT22;24035;48.900;9.188;2022-10-16T11:01:09;25.00;1.00
38239;DHT22;24035;48.900;9.188;2022-10-16T11:03:51;25.20;1.00
38239;DHT22;24035;48.900;9.188;2022-10-16T11:06:28;25.30;1.00
38239;DHT22;24035;48.900;9.188;2022-10-16T11:09:19;25.30;99.90
38239;DHT22;24035;48.900;9.188;2022-10-16T11:11:54;25.20;99.90
38239;DHT22;24035;48.900;9.188;2022-10-16T11:17:29;24.70;99.90
38239;DHT22;24035;48.900;9.188;2022-10-16T11:20:05;24.30;99.90
38239;DHT22;24035;48.900;9.188;2022-10-16T11:22:42;23.80;1.00
38239;DHT22;24035;48.900;9.188;2022-10-16T11:25:28;23.50;1.00
38239;DHT22;24035;48.900;9.188;2022-10-16T11:31:21;23.20;1.00
38239;DHT22;24035;48.900;9.188;2022-10-16T11:33:57;23.00;1.00
38239;DHT22;24035;48.900;9.188;2022-10-16T11:36:38;22.90;1.00
38239;DHT22;24035;48.900;9.188;2022-10-16T11:39:20;22.90;1.00
38239;DHT22;24035;48.900;9.188;2022-10-16T11:49:51;23.00;1.00
38239;DHT22;24035;48.900;9.188;2022-10-16T11:52:39;23.20;1.00
38239;DHT22;24035;48.900;9.188;2022-10-16T11:57:46;23.20;1.00
38239;DHT22;24035;48.900;9.188;2022-10-16T12:00:26;23.10;1.00
38239;DHT22;24035;48.900;9.188;2022-10-16T12:02:59;23.20;1.00
38239;DHT22;24035;48.900;9.188;2022-10-16T12:08:27;23.30;99.90
38239;DHT22;24035;48.900;9.188;2022-10-16T12:10:53;23.30;99.90
38239;DHT22;24035;48.900;9.188;2022-10-16T12:13:32;23.30;99.90
38239;DHT22;24035;48.900;9.188;2022-10-16T12:16:21;23.20;99.90
38239;DHT22;24035;48.900;9.188;2022-10-16T12:18:48;23.00;99.90
38239;DHT22;24035;48.900;9.188;2022-10-16T12:21:16;23.00;1.00
38239;DHT22;24035;48.900;9.188;2022-10-16T12:26:27;23.00;1.00
38239;DHT22;24035;48.900;9.188;2022-10-16T12:28:54;22.90;1.00
38239;DHT22;24035;48.900;9.188;2022-10-16T12:31:21;22.90;1.00
38239;DHT22;24035;48.900;9.188;2022-10-16T12:33:59;22.90;1.00
38239;DHT22;24035;48.900;9.188;2022-10-16T12:36:29;22.80;1.00
38239;DHT22;24035;48.900;9.188;2022-10-16T12:38:56;22.70;1.00
38239;DHT22;24035;48.900;9.188;2022-10-16T12:41:34;22.50;1.00
38239;DHT22;24035;48.900;9.188;2022-10-16T12:44:01;22.60;1.00
38239;DHT22;24035;48.900;9.188;2022-10-16T12:51:40;22.80;99.90
38239;DHT22;24035;48.900;9.188;2022-10-16T12:54:17;22.90;1.00
38239;DHT22;24035;48.900;9.188;2022-10-16T12:59:28;23.00;1.00
38239;DHT22;24035;48.900;9.188;2022-10-16T13:04:43;23.10;1.00
38239;DHT22;24035;48.900;9.188;2022-10-16T13:07:33;22.80;1.00
38239;DHT22;24035;48.900;9.188;2022-10-16T13:10:10;23.00;1.00
38239;DHT22;24035;48.900;9.188;2022-10-16T13:21:16;23.50;1.00
38239;DHT22;24035;48.900;9.188;2022-10-16T13:24:08;23.30;1.00
38239;DHT22;24035;48.900;9.188;2022-10-16T13:27:06;23.10;1.00
38239;DHT22;24035;48.900;9.188;2022-10-16T13:29:33;23.30;1.00
38239;DHT22;24035;48.900;9.188;2022-10-16T13:32:00;23.40;1.00
38239;DHT22;24035;48.900;9.188;2022-10-16T13:34:27;23.60;1.00
38239;DHT22;24035;48.900;9.188;2022-10-16T13:36:53;23.70;1.00
38239;DHT22;24035;48.900;9.188;2022-10-16T13:42:10;24.00;99.90
38239;DHT22;24035;48.900;9.188;2022-10-16T13:44:51;24.20;99.90
38239;DHT22;24035;48.900;9.188;2022-10-16T13:47:19;24.40;99.90
38239;DHT22;24035;48.900;9.188;2022-10-16T13:49:46;24.30;99.90
38239;DHT22;24035;48.900;9.188;2022-10-16T13:52:18;24.00;99.90
38239;DHT22;24035;48.900;9.188;2022-10-16T13:54:44;23.80;1.00
38239;DHT22;24035;48.900;9.188;2022-10-16T13:57:14;23.70;1.00
38239;DHT22;24035;48.900;9.188;2022-10-16T13:59:40;23.80;1.00
38239;DHT22;24035;48.900;9.188;2022-10-16T14:02:37;23.90;1.00
38239;DHT22;24035;48.900;9.188;2022-10-16T14:05:08;23.80;1.00
38239;DHT22;24035;48.900;9.188;2022-10-16T14:07:35;23.50;1.00
38239;DHT22;24035;48.900;9.188;2022-10-16T14:10:05;23.20;1.00
38239;DHT22;24035;48.900;9.188;2022-10-16T14:12:31;23.00;1.00
38239;DHT22;24035;48.900;9.188;2022-10-16T14:14:58;22.60;1.00
38239;DHT22;24035;48.900;9.188;2022-10-16T14:17:27;22.60;1.00
38239;DHT22;24035;48.900;9.188;2022-10-16T14:19:55;22.60;1.00
38239;DHT22;24035;48.900;9.188;2022-10-16T14:25:47;22.70;1.00
38239;DHT22;24035;48.900;9.188;2022-10-16T14:28:22;22.80;1.00
38239;DHT22;24035;48.900;9.188;2022-10-16T14:30:54;22.90;1.00
38239;DHT22;24035;48.900;9.188;2022-10-16T14:33:30;22.90;1.00
38239;DHT22;24035;48.900;9.188;2022-10-16T14:38:30;23.00;1.00
38239;DHT22;24035;48.900;9.188;2022-10-16T14:40:58;23.00;1.00
38239;DHT22;24035;48.900;9.188;2022-10-16T14:43:44;23.00;1.00
38239;DHT22;24035;48.900;9.188;2022-10-16T14:46:16;23.10;1.00
38239;DHT22;24035;48.900;9.188;2022-10-16T14:48:47;23.20;1.00
38239;DHT22;24035;48.900;9.188;2022-10-16T14:51:18;23.30;1.00
38239;DHT22;24035;48.900;9.188;2022-10-16T14:57:00;23.40;1.00
38239;DHT22;24035;48.900;9.188;2022-10-16T14:59:35;23.40;1.00
38239;DHT22;24035;48.900;9.188;2022-10-16T15:02:27;23.50;1.00
38239;DHT22;24035;48.900;9.188;2022-10-16T15:04:53;23.30;1.00
38239;DHT22;24035;48.900;9.188;2022-10-16T15:07:19;23.20;1.00
38239;DHT22;24035;48.900;9.188;2022-10-16T15:09:45;23.00;1.00
38239;DHT22;24035;48.900;9.188;2022-10-16T15:12:10;23.00;1.00
38239;DHT22;24035;48.900;9.188;2022-10-16T15:14:36;22.90;1.00
38239;DHT22;24035;48.900;9.188;2022-10-16T15:17:03;22.90;1.00
38239;DHT22;24035;48.900;9.188;2022-10-16T15:19:29;22.90;1.00
38239;DHT22;24035;48.900;9.188;2022-10-16T15:21:55;22.80;1.00
38239;DHT22;24035;48.900;9.188;2022-10-16T15:24:20;22.70;1.00
38239;DHT22;24035;48.900;9.188;2022-10-16T15:26:46;22.60;1.00
38239;DHT22;24035;48.900;9.188;2022-10-16T15:29:12;22.40;1.00
38239;DHT22;24035;48.900;9.188;2022-10-16T15:31:38;22.30;1.00
38239;DHT22;24035;48.900;9.188;2022-10-16T15:34:04;22.20;1.00
38239;DHT22;24035;48.900;9.188;2022-10-16T15:36:33;22.10;23.40
38239;DHT22;24035;48.900;9.188;2022-10-16T15:39:04;22.00;80.60
38239;DHT22;24035;48.900;9.188;2022-10-16T15:41:31;21.90;99.90
38239;DHT22;24035;48.900;9.188;2022-10-16T15:43:56;21.90;99.90
38239;DHT22;24035;48.900;9.188;2022-10-16T15:46:23;22.00;99.90
38239;DHT22;24035;48.900;9.188;2022-10-16T15:48:50;22.00;99.90
38239;DHT22;24035;48.900;9.188;2022-10-16T15:51:20;22.00;99.90
38239;DHT22;24035;48.900;9.188;2022-10-16T15:57:08;22.20;99.90
38239;DHT22;24035;48.900;9.188;2022-10-16T15:59:33;22.20;99.90
38239;DHT22;24035;48.900;9.188;2022-10-16T16:01:59;22.10;99.90
38239;DHT22;24035;48.900;9.188;2022-10-16T16:04:25;22.00;99.90
38239;DHT22;24035;48.900;9.188;2022-10-16T16:07:27;21.90;99.90
38239;DHT22;24035;48.900;9.188;2022-10-16T16:09:53;21.70;99.90
38239;DHT22;24035;48.900;9.188;2022-10-16T16:12:19;21.60;99.90
38239;DHT22;24035;48.900;9.188;2022-10-16T16:14:45;21.40;99.90
38239;DHT22;24035;48.900;9.188;2022-10-16T16:17:13;21.30;99.90
38239;DHT22;24035;48.900;9.188;2022-10-16T16:19:39;21.20;99.90
38239;DHT22;24035;48.900;9.188;2022-10-16T16:22:05;21.10;99.90
38239;DHT22;24035;48.900;9.188;2022-10-16T16:24:31;20.90;99.90
38239;DHT22;24035;48.900;9.188;2022-10-16T16:26:57;20.90;99.90
38239;DHT22;24035;48.900;9.188;2022-10-16T16:29:22;20.80;99.90
38239;DHT22;24035;48.900;9.188;2022-10-16T16:31:48;20.70;1.00
38239;DHT22;24035;48.900;9.188;2022-10-16T16:34:14;20.70;1.00
38239;DHT22;24035;48.900;9.188;2022-10-16T16:36:39;20.80;1.00
38239;DHT22;24035;48.900;9.188;2022-10-16T16:39:06;20.70;1.00
38239;DHT22;24035;48.900;9.188;2022-10-16T16:41:33;20.70;1.00
38239;DHT22;24035;48.900;9.188;2022-10-16T16:44:04;20.60;1.00
38239;DHT22;24035;48.900;9.188;2022-10-16T16:46:31;20.60;1.00
38239;DHT22;24035;48.900;9.188;2022-10-16T16:48:58;20.40;1.00
38239;DHT22;24035;48.900;9.188;2022-10-16T16:51:24;20.30;1.00
38239;DHT22;24035;48.900;9.188;2022-10-16T16:53:51;20.30;1.00
38239;DHT22;24035;48.900;9.188;2022-10-16T16:56:18;20.30;1.00
38239;DHT22;24035;48.900;9.188;2022-10-16T16:58:46;20.20;27.20
38239;DHT22;24035;48.900;9.188;2022-10-16T17:01:12;20.00;99.90
38239;DHT22;24035;48.900;9.188;2022-10-16T17:03:41;19.90;99.90
38239;DHT22;24035;48.900;9.188;2022-10-16T17:06:07;19.80;99.90
38239;DHT22;24035;48.900;9.188;2022-10-16T17:08:34;19.60;99.90
38239;DHT22;24035;48.900;9.188;2022-10-16T17:11:00;19.40;1.00
38239;DHT22;24035;48.900;9.188;2022-10-16T17:13:32;19.40;1.00
38239;DHT22;24035;48.900;9.188;2022-10-16T17:16:00;19.20;1.00
38239;DHT22;24035;48.900;9.188;2022-10-16T17:18:27;19.10;40.50
38239;DHT22;24035;48.900;9.188;2022-10-16T17:20:52;19.10;80.30
38239;DHT22;24035;48.900;9.188;2022-10-16T17:23:18;18.90;99.90
38239;DHT22;24035;48.900;9.188;2022-10-16T17:25:45;18.90;99.90
38239;DHT22;24035;48.900;9.188;2022-10-16T17:28:12;18.80;1.00
38239;DHT22;24035;48.900;9.188;2022-10-16T17:30:41;18.70;1.00
38239;DHT22;24035;48.900;9.188;2022-10-16T17:33:07;18.50;1.00
38239;DHT22;24035;48.900;9.188;2022-10-16T17:38:03;18.30;99.90
38239;DHT22;24035;48.900;9.188;2022-10-16T17:40:29;18.30;99.90
38239;DHT22;24035;48.900;9.188;2022-10-16T17:42:55;18.20;99.90
38239;DHT22;24035;48.900;9.188;2022-10-16T17:45:20;18.10;99.90
38239;DHT22;24035;48.900;9.188;2022-10-16T17:47:46;18.00;1.00
38239;DHT22;24035;48.900;9.188;2022-10-16T17:50:11;18.00;1.00
38239;DHT22;24035;48.900;9.188;2022-10-16T17:52:37;17.80;1.00